Vejrstation Sortsø Strand
Vejrstation Sortsø Strands historiske vejrdata
 
Daily Summary for October 26, 2021 Units:  Metric    English   Both
Daily Weekly Monthly Yearly Custom
  Current: High: Low: Average:
Temperature: 9.4 °C 9.4 °C 9.2 °C 9.3 °C
Dew Point: 7.7 °C 7.7 °C 7.3 °C 7.6 °C
Humidity: 89% 89% 88% 89%
Wind Speed: 0km/h 11km/h 0km/h 5.1km/h
Wind Gust: 0km/h 7km/h - -
WindCalm - - South
Pressure: 1013.5 hPa 1014.2 hPa 1013.4 hPa -
Precipitation: 0.00 mm      
Historical Graphs
 
 
Tabular Data for October 26, 2021
Time Temperature Dew Point Pressure Wind Wind Speed Wind Gust Humidity Rainfall Rate (Hourly) solar
00:04 9.2 °C 7.3 °C 1014.2 hPa Calm     88% 0.00 mm 0.00 W/m2
00:09 9.2 °C 7.4 °C 1014.2 hPa South 8 km/h 2 km/h 89% 0.00 mm 0.00 W/m2
00:14 9.2 °C 7.4 °C 1014.2 hPa South 8 km/h 2 km/h 89% 0.00 mm 0.00 W/m2
00:19 9.2 °C 7.4 °C 1014.1 hPa Calm     89% 0.00 mm 0.00 W/m2
00:24 9.2 °C 7.4 °C 1014.1 hPa South 6 km/h 2 km/h 89% 0.00 mm 0.00 W/m2
00:29 9.2 °C 7.4 °C 1014.0 hPa South 6 km/h 3 km/h 89% 0.00 mm 0.00 W/m2
00:34 9.2 °C 7.4 °C 1014.0 hPa South 8 km/h 3 km/h 89% 0.00 mm 0.00 W/m2
00:39 9.2 °C 7.5 °C 1013.9 hPa South 8 km/h 2 km/h 89% 0.00 mm 0.00 W/m2
00:44 9.2 °C 7.5 °C 1013.9 hPa South 7 km/h 2 km/h 89% 0.00 mm 0.00 W/m2
00:49 9.2 °C 7.5 °C 1013.9 hPa South 10 km/h 6 km/h 89% 0.00 mm 0.00 W/m2
00:54 9.2 °C 7.5 °C 1014.0 hPa South 10 km/h 7 km/h 89% 0.00 mm 0.00 W/m2
00:59 9.3 °C 7.6 °C 1014.0 hPa South 11 km/h 7 km/h 89% 0.00 mm 0.00 W/m2
01:04 9.3 °C 7.6 °C 1014.0 hPa South 11 km/h 6 km/h 89% 0.00 mm 0.00 W/m2
01:09 9.3 °C 7.6 °C 1013.9 hPa Calm     89% 0.00 mm 0.00 W/m2
01:14 9.3 °C 7.6 °C 1014.0 hPa Calm     89% 0.00 mm 0.00 W/m2
01:19 9.3 °C 7.6 °C 1014.0 hPa Calm     89% 0.00 mm 0.00 W/m2
01:24 9.3 °C 7.6 °C 1014.0 hPa Calm     89% 0.00 mm 0.00 W/m2
01:29 9.3 °C 7.6 °C 1014.0 hPa South 10 km/h 5 km/h 89% 0.00 mm 0.00 W/m2
01:34 9.3 °C 7.6 °C 1013.9 hPa South 8 km/h 5 km/h 89% 0.00 mm 0.00 W/m2
01:39 9.3 °C 7.6 °C 1013.9 hPa South 10 km/h 6 km/h 89% 0.00 mm 0.00 W/m2
01:44 9.3 °C 7.6 °C 1014.0 hPa Calm     89% 0.00 mm 0.00 W/m2
01:49 9.3 °C 7.6 °C 1013.9 hPa Calm     89% 0.00 mm 0.00 W/m2
01:54 9.3 °C 7.6 °C 1013.9 hPa Calm     89% 0.00 mm 0.00 W/m2
01:59 9.3 °C 7.6 °C 1014.0 hPa South 8 km/h 4 km/h 89% 0.00 mm 0.00 W/m2
02:04 9.2 °C 7.5 °C 1013.9 hPa South 8 km/h 5 km/h 89% 0.00 mm 0.00 W/m2
02:09 9.2 °C 7.5 °C 1013.9 hPa South 8 km/h 5 km/h 89% 0.00 mm 0.00 W/m2
02:14 9.2 °C 7.5 °C 1013.9 hPa South 8 km/h 2 km/h 89% 0.00 mm 0.00 W/m2
02:19 9.2 °C 7.5 °C 1013.9 hPa Calm     89% 0.00 mm 0.00 W/m2
02:24 9.2 °C 7.5 °C 1013.9 hPa South 2 km/h   89% 0.00 mm 0.00 W/m2
02:29 9.2 °C 7.5 °C 1013.9 hPa South 8 km/h 5 km/h 89% 0.00 mm 0.00 W/m2
02:34 9.2 °C 7.5 °C 1013.8 hPa South 6 km/h 2 km/h 89% 0.00 mm 0.00 W/m2
02:39 9.2 °C 7.5 °C 1013.7 hPa Calm     89% 0.00 mm 0.00 W/m2
02:44 9.2 °C 7.5 °C 1013.7 hPa Calm     89% 0.00 mm 0.00 W/m2
02:49 9.2 °C 7.5 °C 1013.7 hPa Calm     89% 0.00 mm 0.00 W/m2
02:54 9.3 °C 7.6 °C 1013.7 hPa Calm     89% 0.00 mm 0.00 W/m2
02:59 9.3 °C 7.6 °C 1013.7 hPa South 11 km/h 3 km/h 89% 0.00 mm 0.00 W/m2
03:04 9.3 °C 7.6 °C 1013.7 hPa SSW 11 km/h 3 km/h 89% 0.00 mm 0.00 W/m2
03:09 9.3 °C 7.6 °C 1013.6 hPa SSW 6 km/h 2 km/h 89% 0.00 mm 0.00 W/m2
03:14 9.4 °C 7.7 °C 1013.6 hPa SSW 10 km/h 6 km/h 89% 0.00 mm 0.00 W/m2
03:19 9.4 °C 7.7 °C 1013.6 hPa SSW 9 km/h 3 km/h 89% 0.00 mm 0.00 W/m2
03:24 9.4 °C 7.7 °C 1013.6 hPa SSW 10 km/h 5 km/h 89% 0.00 mm 0.00 W/m2
03:29 9.4 °C 7.7 °C 1013.4 hPa SSW 6 km/h 3 km/h 89% 0.00 mm 0.00 W/m2
03:34 9.4 °C 7.7 °C 1013.4 hPa SSW 4 km/h 1 km/h 89% 0.00 mm 0.00 W/m2
03:39 9.4 °C 7.7 °C 1013.4 hPa Calm     89% 0.00 mm 0.00 W/m2
03:44 9.4 °C 7.7 °C 1013.5 hPa Calm     89% 0.00 mm 0.00 W/m2
03:49 9.4 °C 7.7 °C 1013.5 hPa Calm     89% 0.00 mm 0.00 W/m2
Vejrstation Sortsø Strand
Compliments of Weather Underground - 1 mb

© 2006-2021 strandvejr.dk